sensor_id;sensor_type;location;lat;lon;timestamp;P1;durP1;ratioP1;P2;durP2;ratioP2
58758;SDS011;46777;47.482;19.054;2023-01-24T00:01:31;19.38;;;17.38;;
58758;SDS011;46777;47.482;19.054;2023-01-24T00:04:16;19.67;;;17.40;;
58758;SDS011;46777;47.482;19.054;2023-01-24T00:07:00;19.02;;;16.55;;
58758;SDS011;46777;47.482;19.054;2023-01-24T00:09:44;20.17;;;18.08;;
58758;SDS011;46777;47.482;19.054;2023-01-24T00:12:28;20.30;;;17.98;;
58758;SDS011;46777;47.482;19.054;2023-01-24T00:15:13;19.65;;;17.55;;
58758;SDS011;46777;47.482;19.054;2023-01-24T00:17:57;17.85;;;15.95;;
58758;SDS011;46777;47.482;19.054;2023-01-24T00:20:42;17.45;;;15.65;;
58758;SDS011;46777;47.482;19.054;2023-01-24T00:23:26;18.80;;;16.77;;
58758;SDS011;46777;47.482;19.054;2023-01-24T00:26:10;21.77;;;18.00;;
58758;SDS011;46777;47.482;19.054;2023-01-24T00:28:55;17.23;;;15.48;;
58758;SDS011;46777;47.482;19.054;2023-01-24T00:31:42;17.08;;;15.13;;
58758;SDS011;46777;47.482;19.054;2023-01-24T00:34:26;18.90;;;17.10;;
58758;SDS011;46777;47.482;19.054;2023-01-24T00:37:10;16.95;;;15.25;;
58758;SDS011;46777;47.482;19.054;2023-01-24T00:39:55;17.52;;;15.73;;
58758;SDS011;46777;47.482;19.054;2023-01-24T00:42:39;17.60;;;15.48;;
58758;SDS011;46777;47.482;19.054;2023-01-24T00:45:23;17.23;;;15.50;;
58758;SDS011;46777;47.482;19.054;2023-01-24T00:48:08;17.77;;;15.98;;
58758;SDS011;46777;47.482;19.054;2023-01-24T00:50:53;19.75;;;15.85;;
58758;SDS011;46777;47.482;19.054;2023-01-24T00:53:37;17.92;;;16.05;;
58758;SDS011;46777;47.482;19.054;2023-01-24T00:56:21;17.08;;;15.27;;
58758;SDS011;46777;47.482;19.054;2023-01-24T00:59:05;18.08;;;15.95;;
58758;SDS011;46777;47.482;19.054;2023-01-24T01:01:50;18.05;;;16.08;;
58758;SDS011;46777;47.482;19.054;2023-01-24T01:04:34;17.33;;;15.57;;
58758;SDS011;46777;47.482;19.054;2023-01-24T01:07:18;17.25;;;15.45;;
58758;SDS011;46777;47.482;19.054;2023-01-24T01:10:04;16.90;;;15.20;;
58758;SDS011;46777;47.482;19.054;2023-01-24T01:12:48;17.05;;;15.35;;
58758;SDS011;46777;47.482;19.054;2023-01-24T01:15:32;17.05;;;15.27;;
58758;SDS011;46777;47.482;19.054;2023-01-24T01:18:17;17.80;;;15.90;;
58758;SDS011;46777;47.482;19.054;2023-01-24T01:21:02;16.42;;;14.73;;
58758;SDS011;46777;47.482;19.054;2023-01-24T01:23:47;18.20;;;15.50;;
58758;SDS011;46777;47.482;19.054;2023-01-24T01:26:32;16.88;;;14.85;;
58758;SDS011;46777;47.482;19.054;2023-01-24T01:29:16;17.25;;;15.45;;
58758;SDS011;46777;47.482;19.054;2023-01-24T01:32:01;17.20;;;15.48;;
58758;SDS011;46777;47.482;19.054;2023-01-24T01:34:45;17.15;;;15.43;;
58758;SDS011;46777;47.482;19.054;2023-01-24T01:37:30;16.10;;;14.38;;
58758;SDS011;46777;47.482;19.054;2023-01-24T01:40:14;17.58;;;14.43;;
58758;SDS011;46777;47.482;19.054;2023-01-24T01:42:58;16.83;;;15.13;;
58758;SDS011;46777;47.482;19.054;2023-01-24T01:45:44;16.23;;;14.55;;
58758;SDS011;46777;47.482;19.054;2023-01-24T01:53:59;14.85;;;13.35;;
58758;SDS011;46777;47.482;19.054;2023-01-24T01:56:45;14.57;;;13.07;;
58758;SDS011;46777;47.482;19.054;2023-01-24T02:00:14;14.50;;;13.05;;
58758;SDS011;46777;47.482;19.054;2023-01-24T02:02:38;13.90;;;12.45;;
58758;SDS011;46777;47.482;19.054;2023-01-24T02:05:24;13.85;;;12.45;;
58758;SDS011;46777;47.482;19.054;2023-01-24T02:08:09;14.05;;;12.65;;
58758;SDS011;46777;47.482;19.054;2023-01-24T02:10:57;13.70;;;12.18;;
58758;SDS011;46777;47.482;19.054;2023-01-24T02:14:00;14.65;;;12.25;;
58758;SDS011;46777;47.482;19.054;2023-01-24T02:17:03;14.73;;;13.25;;
58758;SDS011;46777;47.482;19.054;2023-01-24T02:28:03;14.23;;;12.73;;
58758;SDS011;46777;47.482;19.054;2023-01-24T02:30:49;14.73;;;13.23;;
58758;SDS011;46777;47.482;19.054;2023-01-24T02:33:33;14.07;;;12.68;;
58758;SDS011;46777;47.482;19.054;2023-01-24T02:36:25;13.07;;;11.75;;
58758;SDS011;46777;47.482;19.054;2023-01-24T02:39:16;13.93;;;12.50;;
58758;SDS011;46777;47.482;19.054;2023-01-24T02:42:08;14.13;;;12.65;;
58758;SDS011;46777;47.482;19.054;2023-01-24T02:44:57;14.15;;;12.65;;
58758;SDS011;46777;47.482;19.054;2023-01-24T02:47:44;12.82;;;11.52;;
58758;SDS011;46777;47.482;19.054;2023-01-24T02:50:29;13.15;;;11.77;;
58758;SDS011;46777;47.482;19.054;2023-01-24T02:53:33;14.27;;;12.00;;
58758;SDS011;46777;47.482;19.054;2023-01-24T02:56:18;13.75;;;12.35;;
58758;SDS011;46777;47.482;19.054;2023-01-24T02:59:21;13.23;;;11.93;;
58758;SDS011;46777;47.482;19.054;2023-01-24T03:02:05;14.23;;;12.77;;
58758;SDS011;46777;47.482;19.054;2023-01-24T03:04:49;14.38;;;12.95;;
58758;SDS011;46777;47.482;19.054;2023-01-24T03:07:33;13.57;;;12.18;;
58758;SDS011;46777;47.482;19.054;2023-01-24T03:10:27;13.75;;;12.32;;
58758;SDS011;46777;47.482;19.054;2023-01-24T03:13:11;13.15;;;11.80;;
58758;SDS011;46777;47.482;19.054;2023-01-24T03:16:14;13.65;;;12.30;;
58758;SDS011;46777;47.482;19.054;2023-01-24T03:19:18;13.70;;;12.07;;
58758;SDS011;46777;47.482;19.054;2023-01-24T03:22:21;15.18;;;13.68;;
58758;SDS011;46777;47.482;19.054;2023-01-24T03:25:24;13.70;;;12.30;;
58758;SDS011;46777;47.482;19.054;2023-01-24T03:28:27;13.75;;;12.38;;
58758;SDS011;46777;47.482;19.054;2023-01-24T03:31:30;14.30;;;12.80;;
58758;SDS011;46777;47.482;19.054;2023-01-24T03:34:34;13.93;;;12.52;;
58758;SDS011;46777;47.482;19.054;2023-01-24T03:37:29;14.27;;;12.88;;
58758;SDS011;46777;47.482;19.054;2023-01-24T03:40:32;15.38;;;13.88;;
58758;SDS011;46777;47.482;19.054;2023-01-24T03:43:16;14.43;;;12.82;;
58758;SDS011;46777;47.482;19.054;2023-01-24T03:46:01;13.70;;;12.30;;
58758;SDS011;46777;47.482;19.054;2023-01-24T03:48:45;14.32;;;12.90;;
58758;SDS011;46777;47.482;19.054;2023-01-24T03:51:29;14.57;;;12.93;;
58758;SDS011;46777;47.482;19.054;2023-01-24T03:54:32;13.85;;;12.45;;
58758;SDS011;46777;47.482;19.054;2023-01-24T03:57:16;13.88;;;12.48;;
58758;SDS011;46777;47.482;19.054;2023-01-24T04:00:00;13.48;;;12.07;;
58758;SDS011;46777;47.482;19.054;2023-01-24T04:02:45;14.02;;;12.63;;
58758;SDS011;46777;47.482;19.054;2023-01-24T04:05:29;14.10;;;12.75;;
58758;SDS011;46777;47.482;19.054;2023-01-24T04:08:13;14.15;;;12.75;;
58758;SDS011;46777;47.482;19.054;2023-01-24T04:10:58;13.30;;;11.88;;
58758;SDS011;46777;47.482;19.054;2023-01-24T04:13:42;13.88;;;12.40;;
58758;SDS011;46777;47.482;19.054;2023-01-24T04:16:26;15.45;;;13.82;;
58758;SDS011;46777;47.482;19.054;2023-01-24T04:19:10;14.13;;;12.63;;
58758;SDS011;46777;47.482;19.054;2023-01-24T04:21:54;12.93;;;11.63;;
58758;SDS011;46777;47.482;19.054;2023-01-24T04:24:42;13.82;;;12.38;;
58758;SDS011;46777;47.482;19.054;2023-01-24T04:27:26;13.88;;;12.48;;
58758;SDS011;46777;47.482;19.054;2023-01-24T04:30:10;14.95;;;13.20;;
58758;SDS011;46777;47.482;19.054;2023-01-24T04:32:55;13.88;;;12.48;;
58758;SDS011;46777;47.482;19.054;2023-01-24T04:35:40;14.75;;;13.35;;
58758;SDS011;46777;47.482;19.054;2023-01-24T04:38:25;13.68;;;12.27;;
58758;SDS011;46777;47.482;19.054;2023-01-24T04:41:09;13.93;;;12.50;;
58758;SDS011;46777;47.482;19.054;2023-01-24T04:43:56;14.40;;;12.90;;
58758;SDS011;46777;47.482;19.054;2023-01-24T04:46:40;13.18;;;11.65;;
58758;SDS011;46777;47.482;19.054;2023-01-24T04:49:24;13.57;;;12.18;;
58758;SDS011;46777;47.482;19.054;2023-01-24T04:52:12;14.48;;;12.98;;
58758;SDS011;46777;47.482;19.054;2023-01-24T04:54:56;14.75;;;13.25;;
58758;SDS011;46777;47.482;19.054;2023-01-24T04:57:41;13.52;;;12.15;;
58758;SDS011;46777;47.482;19.054;2023-01-24T05:00:26;14.52;;;12.93;;
58758;SDS011;46777;47.482;19.054;2023-01-24T05:03:10;14.68;;;13.10;;
58758;SDS011;46777;47.482;19.054;2023-01-24T05:05:55;15.80;;;13.02;;
58758;SDS011;46777;47.482;19.054;2023-01-24T05:08:39;14.30;;;12.80;;
58758;SDS011;46777;47.482;19.054;2023-01-24T05:11:23;13.70;;;12.30;;
58758;SDS011;46777;47.482;19.054;2023-01-24T05:14:08;14.32;;;12.82;;
58758;SDS011;46777;47.482;19.054;2023-01-24T05:16:53;14.55;;;13.02;;
58758;SDS011;46777;47.482;19.054;2023-01-24T05:19:37;15.13;;;13.63;;
58758;SDS011;46777;47.482;19.054;2023-01-24T05:22:21;14.45;;;13.05;;
58758;SDS011;46777;47.482;19.054;2023-01-24T05:25:05;14.75;;;13.27;;
58758;SDS011;46777;47.482;19.054;2023-01-24T05:27:50;13.88;;;12.48;;
58758;SDS011;46777;47.482;19.054;2023-01-24T05:30:34;14.98;;;13.48;;
58758;SDS011;46777;47.482;19.054;2023-01-24T05:33:18;13.77;;;12.43;;
58758;SDS011;46777;47.482;19.054;2023-01-24T05:36:04;14.43;;;12.93;;
58758;SDS011;46777;47.482;19.054;2023-01-24T05:38:49;14.48;;;12.98;;
58758;SDS011;46777;47.482;19.054;2023-01-24T05:41:33;14.75;;;13.25;;
58758;SDS011;46777;47.482;19.054;2023-01-24T05:44:17;14.20;;;12.77;;
58758;SDS011;46777;47.482;19.054;2023-01-24T05:47:01;15.10;;;13.60;;
58758;SDS011;46777;47.482;19.054;2023-01-24T05:49:46;14.40;;;12.90;;
58758;SDS011;46777;47.482;19.054;2023-01-24T05:52:30;13.98;;;12.48;;
58758;SDS011;46777;47.482;19.054;2023-01-24T05:55:14;14.05;;;12.70;;
58758;SDS011;46777;47.482;19.054;2023-01-24T05:57:58;15.32;;;13.60;;
58758;SDS011;46777;47.482;19.054;2023-01-24T06:00:43;14.38;;;12.90;;
58758;SDS011;46777;47.482;19.054;2023-01-24T06:03:28;14.30;;;12.90;;
58758;SDS011;46777;47.482;19.054;2023-01-24T06:06:13;14.77;;;13.20;;
58758;SDS011;46777;47.482;19.054;2023-01-24T06:08:57;14.70;;;13.13;;
58758;SDS011;46777;47.482;19.054;2023-01-24T06:11:41;14.90;;;13.40;;
58758;SDS011;46777;47.482;19.054;2023-01-24T06:14:26;15.27;;;13.77;;
58758;SDS011;46777;47.482;19.054;2023-01-24T06:17:10;14.55;;;13.05;;
58758;SDS011;46777;47.482;19.054;2023-01-24T06:19:54;14.80;;;13.20;;
58758;SDS011;46777;47.482;19.054;2023-01-24T06:22:43;14.52;;;13.02;;
58758;SDS011;46777;47.482;19.054;2023-01-24T06:25:29;15.52;;;14.05;;
58758;SDS011;46777;47.482;19.054;2023-01-24T06:28:13;15.13;;;13.63;;
58758;SDS011;46777;47.482;19.054;2023-01-24T06:31:10;14.75;;;13.32;;
58758;SDS011;46777;47.482;19.054;2023-01-24T06:37:04;15.52;;;13.90;;
58758;SDS011;46777;47.482;19.054;2023-01-24T06:39:51;15.30;;;13.80;;
58758;SDS011;46777;47.482;19.054;2023-01-24T06:42:36;14.98;;;13.40;;
58758;SDS011;46777;47.482;19.054;2023-01-24T06:45:21;16.05;;;13.52;;
58758;SDS011;46777;47.482;19.054;2023-01-24T06:48:06;18.15;;;14.88;;
58758;SDS011;46777;47.482;19.054;2023-01-24T06:50:50;16.02;;;14.32;;
58758;SDS011;46777;47.482;19.054;2023-01-24T06:53:34;15.98;;;14.35;;
58758;SDS011;46777;47.482;19.054;2023-01-24T06:56:18;16.83;;;15.13;;
58758;SDS011;46777;47.482;19.054;2023-01-24T06:59:02;18.70;;;16.80;;
58758;SDS011;46777;47.482;19.054;2023-01-24T07:01:47;19.20;;;16.15;;
58758;SDS011;46777;47.482;19.054;2023-01-24T07:04:31;18.45;;;16.55;;
58758;SDS011;46777;47.482;19.054;2023-01-24T07:07:15;22.20;;;17.40;;
58758;SDS011;46777;47.482;19.054;2023-01-24T07:09:59;19.30;;;17.08;;
58758;SDS011;46777;47.482;19.054;2023-01-24T07:12:43;19.33;;;17.27;;
58758;SDS011;46777;47.482;19.054;2023-01-24T07:15:28;19.92;;;17.83;;
58758;SDS011;46777;47.482;19.054;2023-01-24T07:18:13;21.45;;;17.60;;
58758;SDS011;46777;47.482;19.054;2023-01-24T07:20:57;20.52;;;18.08;;
58758;SDS011;46777;47.482;19.054;2023-01-24T07:23:45;19.90;;;17.83;;
58758;SDS011;46777;47.482;19.054;2023-01-24T07:26:29;21.38;;;18.30;;
58758;SDS011;46777;47.482;19.054;2023-01-24T07:29:14;19.80;;;17.75;;
58758;SDS011;46777;47.482;19.054;2023-01-24T07:31:58;22.10;;;19.00;;
58758;SDS011;46777;47.482;19.054;2023-01-24T07:34:42;20.58;;;18.38;;
58758;SDS011;46777;47.482;19.054;2023-01-24T07:37:27;20.73;;;18.52;;
58758;SDS011;46777;47.482;19.054;2023-01-24T07:40:11;20.40;;;18.15;;
58758;SDS011;46777;47.482;19.054;2023-01-24T07:42:55;21.02;;;18.27;;
58758;SDS011;46777;47.482;19.054;2023-01-24T07:45:45;21.90;;;18.98;;
58758;SDS011;46777;47.482;19.054;2023-01-24T07:48:30;23.23;;;19.17;;
58758;SDS011;46777;47.482;19.054;2023-01-24T07:51:14;22.10;;;19.73;;
58758;SDS011;46777;47.482;19.054;2023-01-24T07:53:58;21.42;;;19.20;;
58758;SDS011;46777;47.482;19.054;2023-01-24T07:56:42;21.75;;;19.48;;
58758;SDS011;46777;47.482;19.054;2023-01-24T07:59:27;21.85;;;18.60;;
58758;SDS011;46777;47.482;19.054;2023-01-24T08:02:11;21.85;;;19.70;;
58758;SDS011;46777;47.482;19.054;2023-01-24T08:04:56;22.90;;;19.80;;
58758;SDS011;46777;47.482;19.054;2023-01-24T08:07:41;22.08;;;19.67;;
58758;SDS011;46777;47.482;19.054;2023-01-24T08:10:25;22.10;;;19.83;;
58758;SDS011;46777;47.482;19.054;2023-01-24T08:13:10;24.90;;;21.30;;
58758;SDS011;46777;47.482;19.054;2023-01-24T08:15:54;26.15;;;22.33;;
58758;SDS011;46777;47.482;19.054;2023-01-24T08:18:39;24.10;;;21.60;;
58758;SDS011;46777;47.482;19.054;2023-01-24T08:21:24;25.58;;;22.10;;
58758;SDS011;46777;47.482;19.054;2023-01-24T08:24:08;23.63;;;21.13;;
58758;SDS011;46777;47.482;19.054;2023-01-24T08:26:52;25.20;;;22.33;;
58758;SDS011;46777;47.482;19.054;2023-01-24T08:29:37;24.83;;;22.15;;
58758;SDS011;46777;47.482;19.054;2023-01-24T08:32:21;26.15;;;22.40;;
58758;SDS011;46777;47.482;19.054;2023-01-24T08:35:05;24.48;;;21.90;;
58758;SDS011;46777;47.482;19.054;2023-01-24T08:37:49;26.27;;;23.27;;
58758;SDS011;46777;47.482;19.054;2023-01-24T08:40:34;28.75;;;21.67;;
58758;SDS011;46777;47.482;19.054;2023-01-24T08:43:18;24.42;;;21.67;;
58758;SDS011;46777;47.482;19.054;2023-01-24T08:46:02;24.38;;;20.10;;
58758;SDS011;46777;47.482;19.054;2023-01-24T08:48:47;23.50;;;19.58;;
58758;SDS011;46777;47.482;19.054;2023-01-24T08:51:31;24.27;;;21.67;;
58758;SDS011;46777;47.482;19.054;2023-01-24T08:54:15;25.10;;;20.95;;
58758;SDS011;46777;47.482;19.054;2023-01-24T08:56:59;23.33;;;20.70;;
58758;SDS011;46777;47.482;19.054;2023-01-24T08:59:43;22.42;;;20.10;;
58758;SDS011;46777;47.482;19.054;2023-01-24T09:02:28;21.50;;;19.20;;
58758;SDS011;46777;47.482;19.054;2023-01-24T09:05:13;23.67;;;20.40;;
58758;SDS011;46777;47.482;19.054;2023-01-24T09:07:57;21.55;;;19.38;;
58758;SDS011;46777;47.482;19.054;2023-01-24T09:10:42;22.90;;;20.33;;
58758;SDS011;46777;47.482;19.054;2023-01-24T09:13:27;21.98;;;19.63;;
58758;SDS011;46777;47.482;19.054;2023-01-24T09:16:11;23.77;;;19.77;;
58758;SDS011;46777;47.482;19.054;2023-01-24T09:18:55;23.20;;;19.77;;
58758;SDS011;46777;47.482;19.054;2023-01-24T09:21:40;22.77;;;20.35;;
58758;SDS011;46777;47.482;19.054;2023-01-24T09:24:24;23.25;;;19.85;;
58758;SDS011;46777;47.482;19.054;2023-01-24T09:27:10;22.83;;;20.40;;
58758;SDS011;46777;47.482;19.054;2023-01-24T09:29:54;24.27;;;20.10;;
58758;SDS011;46777;47.482;19.054;2023-01-24T09:32:38;22.85;;;19.27;;
58758;SDS011;46777;47.482;19.054;2023-01-24T09:35:22;23.73;;;21.00;;
58758;SDS011;46777;47.482;19.054;2023-01-24T09:38:07;22.52;;;19.70;;
58758;SDS011;46777;47.482;19.054;2023-01-24T09:40:53;22.00;;;19.80;;
58758;SDS011;46777;47.482;19.054;2023-01-24T09:46:45;24.88;;;20.38;;
58758;SDS011;46777;47.482;19.054;2023-01-24T09:49:34;21.70;;;19.60;;
58758;SDS011;46777;47.482;19.054;2023-01-24T09:52:39;22.08;;;19.58;;
58758;SDS011;46777;47.482;19.054;2023-01-24T09:58:27;20.95;;;18.75;;
58758;SDS011;46777;47.482;19.054;2023-01-24T10:01:15;20.65;;;18.55;;
58758;SDS011;46777;47.482;19.054;2023-01-24T10:03:59;20.58;;;17.65;;
58758;SDS011;46777;47.482;19.054;2023-01-24T10:06:51;18.20;;;16.30;;
58758;SDS011;46777;47.482;19.054;2023-01-24T10:09:43;18.90;;;16.70;;
58758;SDS011;46777;47.482;19.054;2023-01-24T10:15:39;17.35;;;15.20;;
58758;SDS011;46777;47.482;19.054;2023-01-24T10:24:04;18.50;;;16.33;;
58758;SDS011;46777;47.482;19.054;2023-01-24T10:26:51;17.45;;;15.57;;
58758;SDS011;46777;47.482;19.054;2023-01-24T10:29:36;18.70;;;14.27;;
58758;SDS011;46777;47.482;19.054;2023-01-24T10:32:26;17.73;;;15.93;;
58758;SDS011;46777;47.482;19.054;2023-01-24T10:35:17;16.90;;;14.20;;
58758;SDS011;46777;47.482;19.054;2023-01-24T10:38:04;16.25;;;14.65;;
58758;SDS011;46777;47.482;19.054;2023-01-24T10:40:58;15.80;;;14.10;;
58758;SDS011;46777;47.482;19.054;2023-01-24T10:43:50;15.80;;;14.20;;
58758;SDS011;46777;47.482;19.054;2023-01-24T10:49:40;16.88;;;14.77;;
58758;SDS011;46777;47.482;19.054;2023-01-24T10:52:25;16.73;;;14.35;;
58758;SDS011;46777;47.482;19.054;2023-01-24T10:55:21;15.80;;;14.20;;
58758;SDS011;46777;47.482;19.054;2023-01-24T11:01:31;14.93;;;13.10;;
58758;SDS011;46777;47.482;19.054;2023-01-24T11:04:17;16.00;;;14.38;;
58758;SDS011;46777;47.482;19.054;2023-01-24T11:07:02;15.48;;;13.45;;
58758;SDS011;46777;47.482;19.054;2023-01-24T11:09:49;14.05;;;12.50;;
58758;SDS011;46777;47.482;19.054;2023-01-24T11:12:33;14.63;;;12.27;;
58758;SDS011;46777;47.482;19.054;2023-01-24T11:15:22;12.80;;;11.27;;
58758;SDS011;46777;47.482;19.054;2023-01-24T11:18:11;13.90;;;11.85;;
58758;SDS011;46777;47.482;19.054;2023-01-24T11:24:01;14.07;;;12.60;;
58758;SDS011;46777;47.482;19.054;2023-01-24T11:27:07;13.70;;;12.27;;
58758;SDS011;46777;47.482;19.054;2023-01-24T11:33:22;13.45;;;12.05;;
58758;SDS011;46777;47.482;19.054;2023-01-24T11:45:26;16.00;;;14.40;;
58758;SDS011;46777;47.482;19.054;2023-01-24T11:51:03;16.45;;;14.75;;
58758;SDS011;46777;47.482;19.054;2023-01-24T11:53:52;16.77;;;14.32;;
58758;SDS011;46777;47.482;19.054;2023-01-24T11:59:51;15.10;;;13.60;;
58758;SDS011;46777;47.482;19.054;2023-01-24T12:02:53;15.90;;;14.07;;
58758;SDS011;46777;47.482;19.054;2023-01-24T12:05:44;15.00;;;12.20;;
58758;SDS011;46777;47.482;19.054;2023-01-24T12:11:20;13.85;;;12.48;;
58758;SDS011;46777;47.482;19.054;2023-01-24T12:16:57;14.38;;;12.65;;
58758;SDS011;46777;47.482;19.054;2023-01-24T12:22:32;15.00;;;13.40;;
58758;SDS011;46777;47.482;19.054;2023-01-24T12:28:37;14.98;;;13.48;;
58758;SDS011;46777;47.482;19.054;2023-01-24T12:31:30;15.32;;;13.73;;
58758;SDS011;46777;47.482;19.054;2023-01-24T12:37:14;14.38;;;12.88;;
58758;SDS011;46777;47.482;19.054;2023-01-24T12:43:13;15.25;;;13.65;;
58758;SDS011;46777;47.482;19.054;2023-01-24T12:49:02;14.60;;;12.73;;
58758;SDS011;46777;47.482;19.054;2023-01-24T12:51:56;13.73;;;11.88;;
58758;SDS011;46777;47.482;19.054;2023-01-24T12:57:42;13.75;;;11.77;;
58758;SDS011;46777;47.482;19.054;2023-01-24T13:00:31;19.05;;;13.32;;
58758;SDS011;46777;47.482;19.054;2023-01-24T13:03:28;14.25;;;12.50;;
58758;SDS011;46777;47.482;19.054;2023-01-24T13:06:22;13.93;;;12.48;;
58758;SDS011;46777;47.482;19.054;2023-01-24T13:12:01;15.27;;;13.25;;
58758;SDS011;46777;47.482;19.054;2023-01-24T13:14:52;16.45;;;14.73;;
58758;SDS011;46777;47.482;19.054;2023-01-24T13:23:23;15.65;;;13.90;;
58758;SDS011;46777;47.482;19.054;2023-01-24T13:26:15;17.10;;;13.63;;
58758;SDS011;46777;47.482;19.054;2023-01-24T13:32:08;19.02;;;16.80;;
58758;SDS011;46777;47.482;19.054;2023-01-24T13:34:54;22.45;;;20.10;;
58758;SDS011;46777;47.482;19.054;2023-01-24T13:37:39;21.88;;;19.58;;
58758;SDS011;46777;47.482;19.054;2023-01-24T13:40:25;23.45;;;20.70;;
58758;SDS011;46777;47.482;19.054;2023-01-24T13:46:15;26.65;;;22.63;;
58758;SDS011;46777;47.482;19.054;2023-01-24T13:48:59;24.38;;;21.77;;
58758;SDS011;46777;47.482;19.054;2023-01-24T13:51:45;23.55;;;21.00;;
58758;SDS011;46777;47.482;19.054;2023-01-24T13:57:32;23.42;;;20.98;;
58758;SDS011;46777;47.482;19.054;2023-01-24T14:00:18;23.83;;;21.23;;
58758;SDS011;46777;47.482;19.054;2023-01-24T14:03:04;22.23;;;19.55;;
58758;SDS011;46777;47.482;19.054;2023-01-24T14:05:53;21.50;;;19.52;;
58758;SDS011;46777;47.482;19.054;2023-01-24T14:08:48;24.27;;;20.15;;
58758;SDS011;46777;47.482;19.054;2023-01-24T14:11:34;23.08;;;20.63;;
58758;SDS011;46777;47.482;19.054;2023-01-24T14:14:25;23.52;;;20.48;;
58758;SDS011;46777;47.482;19.054;2023-01-24T14:20:21;22.42;;;20.08;;
58758;SDS011;46777;47.482;19.054;2023-01-24T14:23:14;22.08;;;19.42;;
58758;SDS011;46777;47.482;19.054;2023-01-24T14:26:01;22.98;;;20.58;;
58758;SDS011;46777;47.482;19.054;2023-01-24T14:28:51;21.10;;;18.90;;
58758;SDS011;46777;47.482;19.054;2023-01-24T14:31:36;24.67;;;21.05;;
58758;SDS011;46777;47.482;19.054;2023-01-24T14:37:12;24.55;;;21.88;;
58758;SDS011;46777;47.482;19.054;2023-01-24T14:43:10;25.35;;;21.15;;
58758;SDS011;46777;47.482;19.054;2023-01-24T14:45:55;22.98;;;20.45;;
58758;SDS011;46777;47.482;19.054;2023-01-24T14:48:40;25.70;;;21.27;;
58758;SDS011;46777;47.482;19.054;2023-01-24T14:51:24;25.95;;;21.63;;
58758;SDS011;46777;47.482;19.054;2023-01-24T14:54:22;23.40;;;20.90;;
58758;SDS011;46777;47.482;19.054;2023-01-24T14:57:18;22.42;;;19.73;;
58758;SDS011;46777;47.482;19.054;2023-01-24T15:05:48;24.17;;;20.77;;
58758;SDS011;46777;47.482;19.054;2023-01-24T15:08:32;23.88;;;20.60;;
58758;SDS011;46777;47.482;19.054;2023-01-24T15:11:26;29.73;;;20.40;;
58758;SDS011;46777;47.482;19.054;2023-01-24T15:14:16;25.10;;;20.90;;
58758;SDS011;46777;47.482;19.054;2023-01-24T15:17:01;26.35;;;20.92;;
58758;SDS011;46777;47.482;19.054;2023-01-24T15:19:46;25.17;;;20.55;;
58758;SDS011;46777;47.482;19.054;2023-01-24T15:22:31;29.50;;;22.20;;
58758;SDS011;46777;47.482;19.054;2023-01-24T15:25:31;27.75;;;20.65;;
58758;SDS011;46777;47.482;19.054;2023-01-24T15:28:20;25.88;;;18.77;;
58758;SDS011;46777;47.482;19.054;2023-01-24T15:31:16;22.25;;;19.85;;
58758;SDS011;46777;47.482;19.054;2023-01-24T15:34:02;25.92;;;19.92;;
58758;SDS011;46777;47.482;19.054;2023-01-24T15:36:54;22.75;;;19.20;;
58758;SDS011;46777;47.482;19.054;2023-01-24T15:39:40;21.25;;;18.95;;
58758;SDS011;46777;47.482;19.054;2023-01-24T15:42:24;22.23;;;18.27;;
58758;SDS011;46777;47.482;19.054;2023-01-24T15:45:35;20.95;;;17.83;;
58758;SDS011;46777;47.482;19.054;2023-01-24T15:48:21;21.55;;;18.50;;
58758;SDS011;46777;47.482;19.054;2023-01-24T15:51:19;18.85;;;16.85;;
58758;SDS011;46777;47.482;19.054;2023-01-24T15:54:10;19.92;;;16.98;;
58758;SDS011;46777;47.482;19.054;2023-01-24T15:56:57;20.52;;;18.33;;
58758;SDS011;46777;47.482;19.054;2023-01-24T15:59:43;19.52;;;17.50;;
58758;SDS011;46777;47.482;19.054;2023-01-24T16:02:28;19.92;;;17.77;;
58758;SDS011;46777;47.482;19.054;2023-01-24T16:05:13;20.20;;;17.90;;
58758;SDS011;46777;47.482;19.054;2023-01-24T16:07:58;23.25;;;19.77;;
58758;SDS011;46777;47.482;19.054;2023-01-24T16:10:42;21.63;;;19.30;;
58758;SDS011;46777;47.482;19.054;2023-01-24T16:13:35;22.50;;;20.10;;
58758;SDS011;46777;47.482;19.054;2023-01-24T16:16:20;24.33;;;19.75;;
58758;SDS011;46777;47.482;19.054;2023-01-24T16:19:14;23.05;;;19.88;;
58758;SDS011;46777;47.482;19.054;2023-01-24T16:21:59;22.23;;;19.95;;
58758;SDS011;46777;47.482;19.054;2023-01-24T16:24:43;24.52;;;20.23;;
58758;SDS011;46777;47.482;19.054;2023-01-24T16:27:28;23.55;;;21.02;;
58758;SDS011;46777;47.482;19.054;2023-01-24T16:30:16;24.05;;;21.15;;
58758;SDS011;46777;47.482;19.054;2023-01-24T16:33:00;24.95;;;21.08;;
58758;SDS011;46777;47.482;19.054;2023-01-24T16:35:45;24.80;;;22.00;;
58758;SDS011;46777;47.482;19.054;2023-01-24T16:38:29;25.30;;;22.70;;
58758;SDS011;46777;47.482;19.054;2023-01-24T16:41:13;24.55;;;21.98;;
58758;SDS011;46777;47.482;19.054;2023-01-24T16:43:58;26.30;;;22.20;;
58758;SDS011;46777;47.482;19.054;2023-01-24T16:46:46;25.88;;;23.08;;
58758;SDS011;46777;47.482;19.054;2023-01-24T16:49:31;26.92;;;23.38;;
58758;SDS011;46777;47.482;19.054;2023-01-24T16:52:15;25.85;;;23.10;;
58758;SDS011;46777;47.482;19.054;2023-01-24T16:54:59;25.40;;;22.70;;
58758;SDS011;46777;47.482;19.054;2023-01-24T16:57:44;25.83;;;22.88;;
58758;SDS011;46777;47.482;19.054;2023-01-24T17:00:29;24.63;;;21.50;;
58758;SDS011;46777;47.482;19.054;2023-01-24T17:03:15;25.40;;;22.70;;
58758;SDS011;46777;47.482;19.054;2023-01-24T17:05:59;25.98;;;23.17;;
58758;SDS011;46777;47.482;19.054;2023-01-24T17:08:43;26.02;;;22.48;;
58758;SDS011;46777;47.482;19.054;2023-01-24T17:11:28;25.40;;;21.52;;
58758;SDS011;46777;47.482;19.054;2023-01-24T17:14:12;27.50;;;24.50;;
58758;SDS011;46777;47.482;19.054;2023-01-24T17:16:57;27.27;;;24.33;;
58758;SDS011;46777;47.482;19.054;2023-01-24T17:19:41;27.33;;;23.60;;
58758;SDS011;46777;47.482;19.054;2023-01-24T17:22:26;26.05;;;23.00;;
58758;SDS011;46777;47.482;19.054;2023-01-24T17:25:10;26.15;;;23.42;;
58758;SDS011;46777;47.482;19.054;2023-01-24T17:27:55;27.27;;;24.38;;
58758;SDS011;46777;47.482;19.054;2023-01-24T17:30:39;26.65;;;23.85;;
58758;SDS011;46777;47.482;19.054;2023-01-24T17:33:25;26.58;;;23.52;;
58758;SDS011;46777;47.482;19.054;2023-01-24T17:36:10;26.65;;;23.60;;
58758;SDS011;46777;47.482;19.054;2023-01-24T17:38:56;26.25;;;22.88;;
58758;SDS011;46777;47.482;19.054;2023-01-24T17:41:40;26.20;;;23.40;;
58758;SDS011;46777;47.482;19.054;2023-01-24T17:44:24;25.50;;;22.48;;
58758;SDS011;46777;47.482;19.054;2023-01-24T17:47:08;26.10;;;23.00;;
58758;SDS011;46777;47.482;19.054;2023-01-24T17:49:53;25.08;;;22.42;;
58758;SDS011;46777;47.482;19.054;2023-01-24T17:52:37;25.05;;;22.45;;
58758;SDS011;46777;47.482;19.054;2023-01-24T17:55:21;25.98;;;23.10;;
58758;SDS011;46777;47.482;19.054;2023-01-24T17:58:05;26.05;;;23.23;;